createdAt,value
2023-01-17T00:02:12.211Z,3.40
2023-01-17T00:17:12.004Z,3.20
2023-01-17T00:32:11.851Z,3.60
2023-01-17T00:47:11.700Z,2.80
2023-01-17T01:02:11.609Z,3.50
2023-01-17T01:17:11.373Z,3.40
2023-01-17T01:32:11.256Z,3.50
2023-01-17T01:47:11.072Z,3.20
2023-01-17T02:02:10.937Z,4.00
2023-01-17T02:17:10.781Z,4.20
2023-01-17T02:32:10.641Z,3.50
2023-01-17T02:47:10.579Z,3.70
2023-01-17T03:02:10.488Z,4.90
2023-01-17T03:17:10.177Z,3.90
2023-01-17T03:32:10.023Z,4.10
2023-01-17T03:47:09.967Z,3.70
2023-01-17T04:02:09.864Z,4.40
2023-01-17T04:17:09.521Z,4.70
2023-01-17T04:32:09.386Z,4.30
2023-01-17T04:47:09.283Z,3.00
2023-01-17T05:02:09.109Z,2.10
2023-01-17T05:17:08.871Z,1.50
2023-01-17T05:32:08.716Z,2.70
2023-01-17T05:47:08.569Z,1.80
2023-01-17T06:02:08.406Z,2.40
2023-01-17T06:17:08.258Z,2.50
2023-01-17T06:32:08.091Z,2.10
2023-01-17T06:47:07.942Z,2.80
2023-01-17T07:02:07.760Z,4.30
2023-01-17T07:17:07.601Z,3.30
2023-01-17T07:32:07.446Z,2.90
2023-01-17T07:47:07.260Z,2.80
2023-01-17T08:02:07.157Z,2.90
2023-01-17T08:17:06.955Z,2.40
2023-01-17T08:32:06.808Z,4.00
2023-01-17T08:47:06.706Z,2.70
2023-01-17T09:02:06.587Z,2.30
2023-01-17T09:17:06.328Z,2.80
2023-01-17T09:32:06.183Z,3.30
2023-01-17T09:47:06.151Z,3.20
2023-01-17T10:02:06.038Z,3.20
2023-01-17T10:17:05.720Z,4.50
2023-01-17T10:32:05.569Z,4.60
2023-01-17T10:47:05.402Z,10.50
2023-01-17T11:02:05.311Z,3.10
2023-01-17T11:17:05.106Z,5.00
2023-01-17T11:32:04.945Z,5.90
2023-01-17T11:47:04.794Z,2.30
2023-01-17T12:02:04.636Z,3.80
2023-01-17T12:17:04.448Z,2.30
2023-01-17T12:32:04.294Z,3.80
2023-01-17T12:47:04.176Z,5.50
2023-01-17T13:02:04.049Z,3.20
2023-01-17T13:17:03.816Z,6.60
2023-01-17T13:32:03.661Z,3.90
2023-01-17T13:47:03.521Z,4.20
2023-01-17T14:02:03.372Z,8.20
2023-01-17T14:17:03.200Z,3.60
2023-01-17T14:32:03.057Z,7.30
2023-01-17T14:47:02.920Z,5.30
2023-01-17T15:02:08.047Z,5.40
2023-01-17T15:17:02.617Z,6.30
2023-01-17T15:32:02.434Z,6.60
2023-01-17T15:47:02.266Z,8.40
2023-01-17T16:02:02.160Z,5.30
2023-01-17T16:17:01.998Z,8.10
2023-01-17T16:32:01.788Z,7.20
2023-01-17T16:47:01.641Z,6.80
2023-01-17T17:02:01.568Z,10.50
2023-01-17T17:17:01.352Z,9.70
2023-01-17T17:32:01.196Z,10.40
2023-01-17T17:47:01.029Z,11.10
2023-01-17T18:02:01.012Z,11.80
2023-01-17T18:17:00.739Z,14.20
2023-01-17T18:32:03.868Z,14.60
2023-01-17T18:47:00.706Z,15.00
2023-01-17T19:02:00.399Z,15.00
2023-01-17T19:17:00.203Z,16.00
2023-01-17T19:32:00.948Z,28.70
2023-01-17T19:47:00.183Z,23.50
2023-01-17T20:01:59.892Z,24.70
2023-01-17T20:16:59.533Z,25.20
2023-01-17T20:31:59.374Z,29.10
2023-01-17T20:46:59.167Z,33.80
2023-01-17T21:01:59.240Z,34.80
2023-01-17T21:16:58.948Z,35.10
2023-01-17T21:31:58.723Z,41.60
2023-01-17T21:46:58.633Z,36.40
2023-01-17T22:01:58.593Z,37.90
2023-01-17T22:16:58.273Z,32.50
2023-01-17T22:31:58.118Z,35.10
2023-01-17T22:46:57.964Z,34.10
2023-01-17T23:01:57.816Z,35.80
2023-01-17T23:16:57.671Z,43.10
2023-01-17T23:31:57.522Z,36.50
2023-01-17T23:46:57.365Z,32.10
